sensor_id;sensor_type;location;lat;lon;timestamp;pressure;altitude;pressure_sealevel;temperature;humidity
11936;BME280;6027;48.576;9.180;2023-02-15T00:01:41;98140.53;;;1.57;100.00
11936;BME280;6027;48.576;9.180;2023-02-15T00:04:07;98129.47;;;1.54;100.00
11936;BME280;6027;48.576;9.180;2023-02-15T00:06:33;98139.28;;;1.50;100.00
11936;BME280;6027;48.576;9.180;2023-02-15T00:08:59;98127.72;;;1.40;100.00
11936;BME280;6027;48.576;9.180;2023-02-15T00:11:25;98137.31;;;1.11;100.00
11936;BME280;6027;48.576;9.180;2023-02-15T00:14:10;98129.69;;;0.94;100.00
11936;BME280;6027;48.576;9.180;2023-02-15T00:16:37;98126.41;;;0.90;100.00
11936;BME280;6027;48.576;9.180;2023-02-15T00:19:03;98128.53;;;0.98;100.00
11936;BME280;6027;48.576;9.180;2023-02-15T00:21:30;98126.69;;;1.00;100.00
11936;BME280;6027;48.576;9.180;2023-02-15T00:23:58;98127.44;;;1.02;100.00
11936;BME280;6027;48.576;9.180;2023-02-15T00:26:24;98122.03;;;1.05;100.00
11936;BME280;6027;48.576;9.180;2023-02-15T00:28:50;98120.00;;;1.10;100.00
11936;BME280;6027;48.576;9.180;2023-02-15T00:31:15;98120.00;;;1.10;100.00
11936;BME280;6027;48.576;9.180;2023-02-15T00:33:41;98114.97;;;1.07;100.00
11936;BME280;6027;48.576;9.180;2023-02-15T00:36:08;98122.22;;;1.16;100.00
11936;BME280;6027;48.576;9.180;2023-02-15T00:38:34;98117.31;;;1.12;100.00
11936;BME280;6027;48.576;9.180;2023-02-15T00:41:02;98107.53;;;1.15;100.00
11936;BME280;6027;48.576;9.180;2023-02-15T00:43:29;98113.66;;;1.14;100.00
11936;BME280;6027;48.576;9.180;2023-02-15T00:45:55;98100.44;;;1.03;100.00
11936;BME280;6027;48.576;9.180;2023-02-15T00:48:21;98110.94;;;1.01;100.00
11936;BME280;6027;48.576;9.180;2023-02-15T00:50:58;98106.75;;;0.85;100.00
11936;BME280;6027;48.576;9.180;2023-02-15T00:53:25;98104.22;;;0.55;100.00
11936;BME280;6027;48.576;9.180;2023-02-15T00:55:52;98102.31;;;0.43;100.00
11936;BME280;6027;48.576;9.180;2023-02-15T00:58:17;98110.16;;;0.57;100.00
11936;BME280;6027;48.576;9.180;2023-02-15T01:00:44;98104.31;;;0.67;100.00
11936;BME280;6027;48.576;9.180;2023-02-15T01:03:11;98108.03;;;0.78;100.00
11936;BME280;6027;48.576;9.180;2023-02-15T01:05:37;98107.59;;;0.85;100.00
11936;BME280;6027;48.576;9.180;2023-02-15T01:08:03;98098.09;;;0.84;100.00
11936;BME280;6027;48.576;9.180;2023-02-15T01:10:29;98103.41;;;0.83;100.00
11936;BME280;6027;48.576;9.180;2023-02-15T01:12:55;98101.81;;;0.80;100.00
11936;BME280;6027;48.576;9.180;2023-02-15T01:15:21;98096.06;;;0.75;100.00
11936;BME280;6027;48.576;9.180;2023-02-15T01:17:47;98099.50;;;0.76;100.00
11936;BME280;6027;48.576;9.180;2023-02-15T01:20:21;98100.03;;;0.81;100.00
11936;BME280;6027;48.576;9.180;2023-02-15T01:22:47;98102.56;;;0.82;100.00
11936;BME280;6027;48.576;9.180;2023-02-15T01:25:16;98091.47;;;0.79;100.00
11936;BME280;6027;48.576;9.180;2023-02-15T01:27:41;98095.97;;;0.77;100.00
11936;BME280;6027;48.576;9.180;2023-02-15T01:30:07;98090.19;;;0.72;100.00
11936;BME280;6027;48.576;9.180;2023-02-15T01:32:34;98099.28;;;0.79;100.00
11936;BME280;6027;48.576;9.180;2023-02-15T01:34:59;98102.09;;;0.76;100.00
11936;BME280;6027;48.576;9.180;2023-02-15T01:37:24;98098.66;;;0.75;100.00
11936;BME280;6027;48.576;9.180;2023-02-15T01:39:50;98099.69;;;0.73;100.00
11936;BME280;6027;48.576;9.180;2023-02-15T01:42:21;98098.84;;;0.72;100.00
11936;BME280;6027;48.576;9.180;2023-02-15T01:47:38;98090.72;;;0.62;100.00
11936;BME280;6027;48.576;9.180;2023-02-15T01:50:16;98094.63;;;0.55;100.00
11936;BME280;6027;48.576;9.180;2023-02-15T01:52:53;98091.38;;;0.66;100.00
11936;BME280;6027;48.576;9.180;2023-02-15T01:55:22;98084.38;;;0.66;100.00
11936;BME280;6027;48.576;9.180;2023-02-15T01:57:49;98093.03;;;0.67;100.00
11936;BME280;6027;48.576;9.180;2023-02-15T02:00:15;98087.00;;;0.66;100.00
11936;BME280;6027;48.576;9.180;2023-02-15T02:02:43;98086.06;;;0.67;100.00
11936;BME280;6027;48.576;9.180;2023-02-15T02:05:10;98081.78;;;0.66;100.00
11936;BME280;6027;48.576;9.180;2023-02-15T02:07:42;98071.28;;;0.68;100.00
11936;BME280;6027;48.576;9.180;2023-02-15T02:10:15;98079.34;;;0.63;100.00
11936;BME280;6027;48.576;9.180;2023-02-15T02:12:44;98086.81;;;0.55;100.00
11936;BME280;6027;48.576;9.180;2023-02-15T02:35:01;98060.78;;;0.40;100.00
11936;BME280;6027;48.576;9.180;2023-02-15T02:43:07;98082.97;;;-0.29;100.00
11936;BME280;6027;48.576;9.180;2023-02-15T02:46:05;98068.31;;;-0.61;100.00
11936;BME280;6027;48.576;9.180;2023-02-15T02:48:33;98070.47;;;-0.38;100.00
11936;BME280;6027;48.576;9.180;2023-02-15T02:50:59;98059.78;;;-0.18;100.00
11936;BME280;6027;48.576;9.180;2023-02-15T02:53:26;98066.03;;;-0.20;100.00
11936;BME280;6027;48.576;9.180;2023-02-15T02:55:58;98056.00;;;-0.12;100.00
11936;BME280;6027;48.576;9.180;2023-02-15T02:58:46;98071.19;;;-0.05;100.00
11936;BME280;6027;48.576;9.180;2023-02-15T03:01:17;98066.25;;;-0.09;100.00
11936;BME280;6027;48.576;9.180;2023-02-15T03:03:47;98064.72;;;-0.13;100.00
11936;BME280;6027;48.576;9.180;2023-02-15T03:06:23;98059.28;;;-0.09;100.00
11936;BME280;6027;48.576;9.180;2023-02-15T03:08:58;98057.50;;;-0.08;100.00
11936;BME280;6027;48.576;9.180;2023-02-15T03:11:26;98051.28;;;-0.06;100.00
11936;BME280;6027;48.576;9.180;2023-02-15T03:13:52;98059.44;;;-0.12;100.00
11936;BME280;6027;48.576;9.180;2023-02-15T03:16:19;98062.13;;;-0.13;100.00
11936;BME280;6027;48.576;9.180;2023-02-15T03:19:07;98055.50;;;-0.19;100.00
11936;BME280;6027;48.576;9.180;2023-02-15T03:21:40;98060.81;;;-0.20;100.00
11936;BME280;6027;48.576;9.180;2023-02-15T03:24:13;98062.59;;;-0.21;100.00
11936;BME280;6027;48.576;9.180;2023-02-15T03:26:43;98060.53;;;-0.16;100.00
11936;BME280;6027;48.576;9.180;2023-02-15T03:29:11;98056.66;;;-0.09;100.00
11936;BME280;6027;48.576;9.180;2023-02-15T03:31:40;98056.66;;;-0.09;100.00
11936;BME280;6027;48.576;9.180;2023-02-15T03:34:11;98043.44;;;-0.20;100.00
11936;BME280;6027;48.576;9.180;2023-02-15T03:39:28;98052.81;;;-0.17;100.00
11936;BME280;6027;48.576;9.180;2023-02-15T03:44:30;98050.50;;;-0.22;100.00
11936;BME280;6027;48.576;9.180;2023-02-15T03:47:02;98051.00;;;-0.31;100.00
11936;BME280;6027;48.576;9.180;2023-02-15T03:49:39;98057.22;;;-0.33;100.00
11936;BME280;6027;48.576;9.180;2023-02-15T03:52:08;98055.72;;;-0.53;100.00
11936;BME280;6027;48.576;9.180;2023-02-15T03:54:35;98048.59;;;-0.65;100.00
11936;BME280;6027;48.576;9.180;2023-02-15T03:57:24;98047.75;;;-0.50;100.00
11936;BME280;6027;48.576;9.180;2023-02-15T04:00:12;98058.91;;;-0.48;100.00
11936;BME280;6027;48.576;9.180;2023-02-15T04:05:47;98053.44;;;-0.91;100.00
11936;BME280;6027;48.576;9.180;2023-02-15T04:08:13;98051.59;;;-0.89;100.00
11936;BME280;6027;48.576;9.180;2023-02-15T04:10:39;98053.88;;;-0.83;100.00
11936;BME280;6027;48.576;9.180;2023-02-15T04:13:29;98044.72;;;-0.74;100.00
11936;BME280;6027;48.576;9.180;2023-02-15T04:15:55;98040.44;;;-0.75;100.00
11936;BME280;6027;48.576;9.180;2023-02-15T04:18:35;98041.19;;;-0.73;100.00
11936;BME280;6027;48.576;9.180;2023-02-15T04:21:19;98042.31;;;-0.77;100.00
11936;BME280;6027;48.576;9.180;2023-02-15T04:24:04;98043.31;;;-0.80;100.00
11936;BME280;6027;48.576;9.180;2023-02-15T04:26:48;98041.13;;;-1.03;100.00
11936;BME280;6027;48.576;9.180;2023-02-15T04:29:14;98044.78;;;-1.07;100.00
11936;BME280;6027;48.576;9.180;2023-02-15T04:31:40;98042.72;;;-1.00;100.00
11936;BME280;6027;48.576;9.180;2023-02-15T04:34:06;98046.06;;;-0.98;100.00
11936;BME280;6027;48.576;9.180;2023-02-15T04:36:31;98047.47;;;-0.93;100.00
11936;BME280;6027;48.576;9.180;2023-02-15T04:38:57;98046.78;;;-1.12;100.00
11936;BME280;6027;48.576;9.180;2023-02-15T04:41:22;98044.25;;;-1.29;100.00
11936;BME280;6027;48.576;9.180;2023-02-15T04:43:47;98052.94;;;-1.30;100.00
11936;BME280;6027;48.576;9.180;2023-02-15T04:46:13;98058.94;;;-1.46;100.00
11936;BME280;6027;48.576;9.180;2023-02-15T04:48:38;98049.25;;;-1.42;100.00
11936;BME280;6027;48.576;9.180;2023-02-15T04:51:07;98040.22;;;-1.35;100.00
11936;BME280;6027;48.576;9.180;2023-02-15T04:53:33;98037.44;;;-1.32;100.00
11936;BME280;6027;48.576;9.180;2023-02-15T04:55:59;98030.63;;;-1.17;100.00
11936;BME280;6027;48.576;9.180;2023-02-15T04:58:24;98033.31;;;-1.03;100.00
11936;BME280;6027;48.576;9.180;2023-02-15T05:00:50;98019.41;;;-1.02;100.00
11936;BME280;6027;48.576;9.180;2023-02-15T05:03:15;98017.63;;;-1.01;100.00
11936;BME280;6027;48.576;9.180;2023-02-15T05:05:41;98016.97;;;-1.05;100.00
11936;BME280;6027;48.576;9.180;2023-02-15T05:08:06;98010.91;;;-1.21;100.00
11936;BME280;6027;48.576;9.180;2023-02-15T05:10:32;98012.66;;;-1.37;100.00
11936;BME280;6027;48.576;9.180;2023-02-15T05:12:57;98019.38;;;-1.51;100.00
11936;BME280;6027;48.576;9.180;2023-02-15T05:15:22;98020.72;;;-1.59;100.00
11936;BME280;6027;48.576;9.180;2023-02-15T05:17:48;98026.34;;;-1.51;100.00
11936;BME280;6027;48.576;9.180;2023-02-15T05:20:13;98032.84;;;-1.60;100.00
11936;BME280;6027;48.576;9.180;2023-02-15T05:22:39;98034.31;;;-1.54;100.00
11936;BME280;6027;48.576;9.180;2023-02-15T05:25:06;98021.59;;;-1.43;100.00
11936;BME280;6027;48.576;9.180;2023-02-15T05:27:50;98019.94;;;-1.28;100.00
11936;BME280;6027;48.576;9.180;2023-02-15T05:30:34;98023.00;;;-1.20;100.00
11936;BME280;6027;48.576;9.180;2023-02-15T05:33:00;98024.66;;;-1.19;100.00
11936;BME280;6027;48.576;9.180;2023-02-15T05:35:25;98027.25;;;-1.19;100.00
11936;BME280;6027;48.576;9.180;2023-02-15T05:37:51;98024.31;;;-1.13;100.00
11936;BME280;6027;48.576;9.180;2023-02-15T05:40:16;98024.59;;;-1.18;100.00
11936;BME280;6027;48.576;9.180;2023-02-15T05:42:42;98022.91;;;-1.19;100.00
11936;BME280;6027;48.576;9.180;2023-02-15T05:45:07;98026.53;;;-1.06;100.00
11936;BME280;6027;48.576;9.180;2023-02-15T05:47:33;98037.00;;;-1.07;100.00
11936;BME280;6027;48.576;9.180;2023-02-15T05:49:58;98027.91;;;-1.31;100.00
11936;BME280;6027;48.576;9.180;2023-02-15T05:52:23;98033.78;;;-1.28;100.00
11936;BME280;6027;48.576;9.180;2023-02-15T05:54:49;98038.81;;;-1.58;100.00
11936;BME280;6027;48.576;9.180;2023-02-15T05:57:14;98033.22;;;-1.50;100.00
11936;BME280;6027;48.576;9.180;2023-02-15T05:59:40;98035.81;;;-1.50;100.00
11936;BME280;6027;48.576;9.180;2023-02-15T06:02:05;98038.00;;;-1.43;100.00
11936;BME280;6027;48.576;9.180;2023-02-15T06:04:31;98036.56;;;-1.48;100.00
11936;BME280;6027;48.576;9.180;2023-02-15T06:06:57;98032.38;;;-1.51;100.00
11936;BME280;6027;48.576;9.180;2023-02-15T06:09:22;98040.31;;;-1.54;100.00
11936;BME280;6027;48.576;9.180;2023-02-15T06:11:48;98040.41;;;-1.55;100.00
11936;BME280;6027;48.576;9.180;2023-02-15T06:14:15;98034.06;;;-1.67;100.00
11936;BME280;6027;48.576;9.180;2023-02-15T06:16:43;98035.56;;;-1.79;100.00
11936;BME280;6027;48.576;9.180;2023-02-15T06:19:09;98043.88;;;-1.89;100.00
11936;BME280;6027;48.576;9.180;2023-02-15T06:21:34;98042.50;;;-1.96;100.00
11936;BME280;6027;48.576;9.180;2023-02-15T06:24:02;98029.13;;;-1.89;100.00
11936;BME280;6027;48.576;9.180;2023-02-15T06:26:31;98041.50;;;-1.77;100.00
11936;BME280;6027;48.576;9.180;2023-02-15T06:28:56;98047.81;;;-1.65;100.00
11936;BME280;6027;48.576;9.180;2023-02-15T06:31:22;98057.75;;;-1.56;100.00
11936;BME280;6027;48.576;9.180;2023-02-15T06:33:47;98058.41;;;-1.52;100.00
11936;BME280;6027;48.576;9.180;2023-02-15T06:36:13;98057.53;;;-1.68;100.00
11936;BME280;6027;48.576;9.180;2023-02-15T06:38:38;98060.44;;;-1.57;100.00
11936;BME280;6027;48.576;9.180;2023-02-15T06:41:03;98068.28;;;-1.59;100.00
11936;BME280;6027;48.576;9.180;2023-02-15T06:43:29;98062.78;;;-1.53;100.00
11936;BME280;6027;48.576;9.180;2023-02-15T06:45:54;98062.47;;;-1.47;100.00
11936;BME280;6027;48.576;9.180;2023-02-15T06:48:20;98065.63;;;-1.57;100.00
11936;BME280;6027;48.576;9.180;2023-02-15T06:50:45;98062.88;;;-1.54;100.00
11936;BME280;6027;48.576;9.180;2023-02-15T06:53:10;98060.84;;;-1.49;100.00
11936;BME280;6027;48.576;9.180;2023-02-15T06:55:36;98060.78;;;-1.48;100.00
11936;BME280;6027;48.576;9.180;2023-02-15T06:58:01;98065.38;;;-1.53;100.00
11936;BME280;6027;48.576;9.180;2023-02-15T07:00:27;98070.34;;;-1.65;100.00
11936;BME280;6027;48.576;9.180;2023-02-15T07:02:57;98070.16;;;-1.78;100.00
11936;BME280;6027;48.576;9.180;2023-02-15T07:05:24;98071.50;;;-1.71;100.00
11936;BME280;6027;48.576;9.180;2023-02-15T07:07:49;98070.28;;;-1.64;100.00
11936;BME280;6027;48.576;9.180;2023-02-15T07:10:15;98070.13;;;-1.61;100.00
11936;BME280;6027;48.576;9.180;2023-02-15T07:12:40;98068.28;;;-1.59;100.00
11936;BME280;6027;48.576;9.180;2023-02-15T07:15:07;98070.75;;;-1.56;100.00
11936;BME280;6027;48.576;9.180;2023-02-15T07:17:35;98078.34;;;-1.53;100.00
11936;BME280;6027;48.576;9.180;2023-02-15T07:20:08;98065.16;;;-1.65;100.00
11936;BME280;6027;48.576;9.180;2023-02-15T07:22:35;98077.16;;;-1.63;100.00
11936;BME280;6027;48.576;9.180;2023-02-15T07:25:06;98067.22;;;-1.72;100.00
11936;BME280;6027;48.576;9.180;2023-02-15T07:27:32;98081.72;;;-1.51;100.00
11936;BME280;6027;48.576;9.180;2023-02-15T07:29:58;98082.19;;;-1.43;100.00
11936;BME280;6027;48.576;9.180;2023-02-15T07:32:27;98074.91;;;-1.36;100.00
11936;BME280;6027;48.576;9.180;2023-02-15T07:34:53;98077.81;;;-1.42;100.00
11936;BME280;6027;48.576;9.180;2023-02-15T07:37:19;98078.97;;;-1.48;100.00
11936;BME280;6027;48.576;9.180;2023-02-15T07:39:45;98065.53;;;-1.56;100.00
11936;BME280;6027;48.576;9.180;2023-02-15T07:42:10;98066.06;;;-1.66;100.00
11936;BME280;6027;48.576;9.180;2023-02-15T07:44:35;98060.78;;;-1.48;100.00
11936;BME280;6027;48.576;9.180;2023-02-15T07:47:01;98058.72;;;-1.41;100.00
11936;BME280;6027;48.576;9.180;2023-02-15T07:49:27;98056.47;;;-1.31;100.00
11936;BME280;6027;48.576;9.180;2023-02-15T07:51:52;98048.59;;;-1.30;100.00
11936;BME280;6027;48.576;9.180;2023-02-15T07:54:19;98052.03;;;-1.29;100.00
11936;BME280;6027;48.576;9.180;2023-02-15T07:56:44;98051.81;;;-1.09;100.00
11936;BME280;6027;48.576;9.180;2023-02-15T07:59:28;98052.97;;;-1.15;100.00
11936;BME280;6027;48.576;9.180;2023-02-15T08:01:57;98057.59;;;-1.20;100.00
11936;BME280;6027;48.576;9.180;2023-02-15T08:04:23;98051.00;;;-1.10;100.00
11936;BME280;6027;48.576;9.180;2023-02-15T08:06:52;98060.25;;;-0.88;100.00
11936;BME280;6027;48.576;9.180;2023-02-15T08:09:18;98062.28;;;-0.78;100.00
11936;BME280;6027;48.576;9.180;2023-02-15T08:11:43;98049.94;;;-0.74;100.00
11936;BME280;6027;48.576;9.180;2023-02-15T08:14:12;98060.91;;;-0.53;100.00
11936;BME280;6027;48.576;9.180;2023-02-15T08:16:59;98059.75;;;-0.48;100.00
11936;BME280;6027;48.576;9.180;2023-02-15T08:19:31;98060.66;;;-0.49;100.00
11936;BME280;6027;48.576;9.180;2023-02-15T08:22:00;98056.78;;;-0.26;100.00
11936;BME280;6027;48.576;9.180;2023-02-15T08:24:28;98059.13;;;-0.21;100.00
11936;BME280;6027;48.576;9.180;2023-02-15T08:26:54;98055.25;;;-0.14;100.00
11936;BME280;6027;48.576;9.180;2023-02-15T08:29:22;98054.28;;;0.03;100.00
11936;BME280;6027;48.576;9.180;2023-02-15T08:31:48;98060.47;;;0.16;100.00
11936;BME280;6027;48.576;9.180;2023-02-15T08:34:16;98055.53;;;0.11;100.00
11936;BME280;6027;48.576;9.180;2023-02-15T08:36:42;98057.31;;;0.25;100.00
11936;BME280;6027;48.576;9.180;2023-02-15T08:39:10;98049.75;;;0.36;100.00
11936;BME280;6027;48.576;9.180;2023-02-15T08:41:38;98045.47;;;0.49;100.00
11936;BME280;6027;48.576;9.180;2023-02-15T08:44:06;98038.63;;;0.77;100.00
11936;BME280;6027;48.576;9.180;2023-02-15T08:46:34;98047.91;;;1.09;100.00
11936;BME280;6027;48.576;9.180;2023-02-15T08:49:00;98049.19;;;1.16;100.00
11936;BME280;6027;48.576;9.180;2023-02-15T08:51:31;98054.59;;;1.54;100.00
11936;BME280;6027;48.576;9.180;2023-02-15T08:54:00;98050.81;;;1.99;100.00
11936;BME280;6027;48.576;9.180;2023-02-15T08:56:28;98041.91;;;2.41;100.00
11936;BME280;6027;48.576;9.180;2023-02-15T08:58:54;98038.97;;;2.71;100.00
11936;BME280;6027;48.576;9.180;2023-02-15T09:01:23;98039.72;;;2.99;100.00
11936;BME280;6027;48.576;9.180;2023-02-15T09:03:50;98034.56;;;3.23;100.00
11936;BME280;6027;48.576;9.180;2023-02-15T09:06:19;98041.78;;;3.56;100.00
11936;BME280;6027;48.576;9.180;2023-02-15T09:08:44;98031.31;;;3.79;100.00
11936;BME280;6027;48.576;9.180;2023-02-15T09:11:12;98037.25;;;4.05;100.00
11936;BME280;6027;48.576;9.180;2023-02-15T09:13:39;98036.06;;;4.33;100.00
11936;BME280;6027;48.576;9.180;2023-02-15T09:16:06;98035.22;;;4.33;100.00
11936;BME280;6027;48.576;9.180;2023-02-15T09:18:35;98031.41;;;4.37;98.86
11936;BME280;6027;48.576;9.180;2023-02-15T09:21:13;98026.69;;;4.53;97.62
11936;BME280;6027;48.576;9.180;2023-02-15T09:23:40;98025.56;;;4.44;95.75
11936;BME280;6027;48.576;9.180;2023-02-15T09:26:08;98031.31;;;4.38;91.28
11936;BME280;6027;48.576;9.180;2023-02-15T09:28:34;98022.94;;;4.33;87.84
11936;BME280;6027;48.576;9.180;2023-02-15T09:31:16;98021.06;;;4.46;91.77
11936;BME280;6027;48.576;9.180;2023-02-15T09:33:43;98019.53;;;4.66;91.72
11936;BME280;6027;48.576;9.180;2023-02-15T09:38:39;98021.94;;;5.03;89.77
11936;BME280;6027;48.576;9.180;2023-02-15T09:41:33;98023.75;;;5.13;85.41
11936;BME280;6027;48.576;9.180;2023-02-15T09:44:13;98014.66;;;5.29;87.13
11936;BME280;6027;48.576;9.180;2023-02-15T09:49:54;98021.03;;;5.69;80.89
11936;BME280;6027;48.576;9.180;2023-02-15T10:06:31;98008.06;;;6.20;65.82
11936;BME280;6027;48.576;9.180;2023-02-15T10:12:19;98007.00;;;6.44;70.59
11936;BME280;6027;48.576;9.180;2023-02-15T10:14:56;98006.25;;;6.53;69.37
11936;BME280;6027;48.576;9.180;2023-02-15T10:17:52;97998.50;;;6.61;70.55
11936;BME280;6027;48.576;9.180;2023-02-15T10:28:44;97992.78;;;6.77;63.34
11936;BME280;6027;48.576;9.180;2023-02-15T10:31:25;98000.16;;;6.83;61.63
11936;BME280;6027;48.576;9.180;2023-02-15T10:45:10;97983.53;;;6.82;60.93
11936;BME280;6027;48.576;9.180;2023-02-15T10:50:24;97974.94;;;7.20;61.54
11936;BME280;6027;48.576;9.180;2023-02-15T10:58:37;97960.03;;;7.59;62.59
11936;BME280;6027;48.576;9.180;2023-02-15T11:01:27;97957.44;;;7.79;64.55
11936;BME280;6027;48.576;9.180;2023-02-15T11:04:22;97947.84;;;7.97;63.24
11936;BME280;6027;48.576;9.180;2023-02-15T11:06:57;97951.72;;;8.12;63.94
11936;BME280;6027;48.576;9.180;2023-02-15T11:09:27;97949.53;;;8.08;63.98
11936;BME280;6027;48.576;9.180;2023-02-15T11:11:57;97941.88;;;8.24;60.54
11936;BME280;6027;48.576;9.180;2023-02-15T11:14:35;97939.34;;;8.42;59.28
11936;BME280;6027;48.576;9.180;2023-02-15T11:17:11;97939.03;;;8.54;56.97
11936;BME280;6027;48.576;9.180;2023-02-15T11:19:43;97928.88;;;8.59;58.49
11936;BME280;6027;48.576;9.180;2023-02-15T11:22:12;97930.38;;;8.72;59.60
11936;BME280;6027;48.576;9.180;2023-02-15T11:24:43;97928.75;;;8.88;57.31
11936;BME280;6027;48.576;9.180;2023-02-15T11:35:04;97916.81;;;9.21;57.82
11936;BME280;6027;48.576;9.180;2023-02-15T11:40:02;97921.13;;;9.40;56.80
11936;BME280;6027;48.576;9.180;2023-02-15T11:42:30;97906.47;;;9.63;54.82
11936;BME280;6027;48.576;9.180;2023-02-15T11:45:24;97913.81;;;9.69;55.08
11936;BME280;6027;48.576;9.180;2023-02-15T11:47:51;97903.38;;;9.86;54.90
11936;BME280;6027;48.576;9.180;2023-02-15T11:50:22;97901.84;;;10.01;54.73
11936;BME280;6027;48.576;9.180;2023-02-15T11:52:52;97908.25;;;10.16;54.79
11936;BME280;6027;48.576;9.180;2023-02-15T11:55:22;97906.00;;;10.21;54.56
11936;BME280;6027;48.576;9.180;2023-02-15T11:57:57;97896.31;;;10.12;56.17
11936;BME280;6027;48.576;9.180;2023-02-15T12:00:46;97906.97;;;10.20;54.88
11936;BME280;6027;48.576;9.180;2023-02-15T12:06:46;97901.91;;;10.53;54.04
11936;BME280;6027;48.576;9.180;2023-02-15T12:11:47;97892.19;;;10.61;53.75
11936;BME280;6027;48.576;9.180;2023-02-15T12:14:13;97894.88;;;10.69;51.92
11936;BME280;6027;48.576;9.180;2023-02-15T12:16:48;97895.94;;;10.85;52.27
11936;BME280;6027;48.576;9.180;2023-02-15T12:21:49;97894.19;;;10.93;52.60
11936;BME280;6027;48.576;9.180;2023-02-15T12:24:24;97888.88;;;10.93;52.10
11936;BME280;6027;48.576;9.180;2023-02-15T12:27:11;97887.16;;;10.84;51.90
11936;BME280;6027;48.576;9.180;2023-02-15T12:29:45;97883.56;;;10.59;51.60
11936;BME280;6027;48.576;9.180;2023-02-15T12:32:19;97884.53;;;10.58;51.76
11936;BME280;6027;48.576;9.180;2023-02-15T12:34:47;97879.78;;;10.62;50.77
11936;BME280;6027;48.576;9.180;2023-02-15T12:37:23;97878.00;;;10.70;51.45
11936;BME280;6027;48.576;9.180;2023-02-15T12:40:02;97878.03;;;10.79;50.33
11936;BME280;6027;48.576;9.180;2023-02-15T12:42:41;97874.38;;;10.80;50.19
11936;BME280;6027;48.576;9.180;2023-02-15T12:45:31;97876.56;;;10.76;51.36
11936;BME280;6027;48.576;9.180;2023-02-15T12:50:40;97866.16;;;10.91;54.79
11936;BME280;6027;48.576;9.180;2023-02-15T12:53:13;97873.97;;;10.92;55.47
11936;BME280;6027;48.576;9.180;2023-02-15T12:55:52;97872.97;;;10.93;55.05
11936;BME280;6027;48.576;9.180;2023-02-15T12:58:25;97870.50;;;10.92;54.27
11936;BME280;6027;48.576;9.180;2023-02-15T13:01:19;97873.66;;;10.95;54.52
11936;BME280;6027;48.576;9.180;2023-02-15T13:04:21;97862.59;;;11.08;54.62
11936;BME280;6027;48.576;9.180;2023-02-15T13:06:49;97854.94;;;11.05;54.99
11936;BME280;6027;48.576;9.180;2023-02-15T13:14:35;97854.94;;;11.05;55.84
11936;BME280;6027;48.576;9.180;2023-02-15T13:17:02;97848.63;;;10.98;55.38
11936;BME280;6027;48.576;9.180;2023-02-15T13:19:45;97843.84;;;11.01;55.78
11936;BME280;6027;48.576;9.180;2023-02-15T13:22:17;97842.06;;;11.10;55.97
11936;BME280;6027;48.576;9.180;2023-02-15T13:24:58;97836.06;;;11.00;56.43
11936;BME280;6027;48.576;9.180;2023-02-15T13:27:31;97828.63;;;11.03;55.33
11936;BME280;6027;48.576;9.180;2023-02-15T13:30:03;97835.25;;;11.07;55.81
11936;BME280;6027;48.576;9.180;2023-02-15T13:32:38;97832.13;;;11.12;56.59
11936;BME280;6027;48.576;9.180;2023-02-15T13:35:14;97825.34;;;11.26;56.19
11936;BME280;6027;48.576;9.180;2023-02-15T13:40:42;97821.19;;;11.23;55.83
11936;BME280;6027;48.576;9.180;2023-02-15T13:46:23;97822.69;;;11.26;56.22
11936;BME280;6027;48.576;9.180;2023-02-15T13:54:57;97827.34;;;11.40;57.74
11936;BME280;6027;48.576;9.180;2023-02-15T14:19:48;97805.66;;;11.61;54.60
11936;BME280;6027;48.576;9.180;2023-02-15T14:25:43;97806.16;;;11.72;54.12
11936;BME280;6027;48.576;9.180;2023-02-15T14:28:26;97803.84;;;11.69;54.44
11936;BME280;6027;48.576;9.180;2023-02-15T14:30:55;97798.53;;;11.69;54.74
11936;BME280;6027;48.576;9.180;2023-02-15T14:33:31;97800.22;;;11.79;54.01
11936;BME280;6027;48.576;9.180;2023-02-15T14:35:59;97810.50;;;11.82;53.92
11936;BME280;6027;48.576;9.180;2023-02-15T14:38:32;97811.47;;;11.72;54.15
11936;BME280;6027;48.576;9.180;2023-02-15T14:41:16;97815.78;;;11.73;52.66
11936;BME280;6027;48.576;9.180;2023-02-15T14:48:54;97812.81;;;11.76;51.96
11936;BME280;6027;48.576;9.180;2023-02-15T14:54:07;97801.84;;;11.71;51.45
11936;BME280;6027;48.576;9.180;2023-02-15T14:56:33;97798.22;;;11.81;51.79
11936;BME280;6027;48.576;9.180;2023-02-15T14:59:07;97810.31;;;11.83;51.78
11936;BME280;6027;48.576;9.180;2023-02-15T15:01:38;97810.00;;;11.78;51.36
11936;BME280;6027;48.576;9.180;2023-02-15T15:04:07;97809.50;;;11.83;51.67
11936;BME280;6027;48.576;9.180;2023-02-15T15:06:36;97804.84;;;11.76;51.60
11936;BME280;6027;48.576;9.180;2023-02-15T15:09:22;97807.50;;;11.76;50.92
11936;BME280;6027;48.576;9.180;2023-02-15T15:11:51;97810.81;;;11.79;50.79
11936;BME280;6027;48.576;9.180;2023-02-15T15:17:10;97801.53;;;11.83;48.93
11936;BME280;6027;48.576;9.180;2023-02-15T15:22:24;97805.19;;;11.82;48.25
11936;BME280;6027;48.576;9.180;2023-02-15T15:24:52;97811.31;;;11.82;47.80
11936;BME280;6027;48.576;9.180;2023-02-15T15:27:47;97806.50;;;11.86;48.18
11936;BME280;6027;48.576;9.180;2023-02-15T15:48:39;97810.28;;;11.59;48.94
11936;BME280;6027;48.576;9.180;2023-02-15T15:53:42;97809.47;;;11.50;49.38
11936;BME280;6027;48.576;9.180;2023-02-15T15:56:13;97809.16;;;11.53;49.80
11936;BME280;6027;48.576;9.180;2023-02-15T15:58:51;97809.63;;;11.40;49.50
11936;BME280;6027;48.576;9.180;2023-02-15T16:01:24;97803.31;;;11.25;49.09
11936;BME280;6027;48.576;9.180;2023-02-15T16:03:53;97806.97;;;11.32;49.00
11936;BME280;6027;48.576;9.180;2023-02-15T16:06:29;97795.22;;;11.35;48.76
11936;BME280;6027;48.576;9.180;2023-02-15T16:08:54;97807.47;;;11.28;48.95
11936;BME280;6027;48.576;9.180;2023-02-15T16:11:24;97800.19;;;11.30;49.34
11936;BME280;6027;48.576;9.180;2023-02-15T16:13:50;97803.31;;;11.25;49.38
11936;BME280;6027;48.576;9.180;2023-02-15T16:16:35;97804.94;;;11.18;50.07
11936;BME280;6027;48.576;9.180;2023-02-15T16:19:00;97794.69;;;11.15;50.08
11936;BME280;6027;48.576;9.180;2023-02-15T16:21:29;97797.47;;;11.05;50.54
11936;BME280;6027;48.576;9.180;2023-02-15T16:24:22;97804.41;;;10.98;50.50
11936;BME280;6027;48.576;9.180;2023-02-15T16:29:50;97810.13;;;10.78;50.95
11936;BME280;6027;48.576;9.180;2023-02-15T16:34:57;97812.72;;;10.61;51.64
11936;BME280;6027;48.576;9.180;2023-02-15T16:37:27;97815.53;;;10.52;51.55